createdAt,value
2018-04-08T00:00:20.515Z,1011.4
2018-04-08T00:01:20.772Z,1011.41
2018-04-08T00:02:21.051Z,1011.43
2018-04-08T00:03:21.019Z,1011.4
2018-04-08T00:04:21.118Z,1011.38
2018-04-08T00:05:21.121Z,1011.37
2018-04-08T00:06:21.208Z,1011.33
2018-04-08T00:07:21.000Z,1011.38
2018-04-08T00:08:20.968Z,1011.4
2018-04-08T00:09:20.994Z,1011.35
2018-04-08T00:10:21.730Z,1011.34
2018-04-08T00:11:21.700Z,1011.34
2018-04-08T00:12:21.957Z,1011.32
2018-04-08T00:13:21.959Z,1011.27
2018-04-08T00:14:21.972Z,1011.27
2018-04-08T00:15:21.776Z,1011.28
2018-04-08T00:16:21.794Z,1011.24
2018-04-08T00:17:22.097Z,1011.2
2018-04-08T00:18:22.161Z,1011.21
2018-04-08T00:19:22.356Z,1011.19
2018-04-08T00:20:22.635Z,1011.18
2018-04-08T00:21:22.660Z,1011.15
2018-04-08T00:22:22.849Z,1011.14
2018-04-08T00:23:23.012Z,1011.17
2018-04-08T00:24:23.045Z,1011.15
2018-04-08T00:25:23.200Z,1011.21
2018-04-08T00:26:23.230Z,1011.12
2018-04-08T00:27:23.400Z,1011.13
2018-04-08T00:28:23.810Z,1011.17
2018-04-08T00:29:24.230Z,1011.08
2018-04-08T00:30:24.263Z,1011.1
2018-04-08T00:31:24.282Z,1011.11
2018-04-08T00:32:24.308Z,1011.06
2018-04-08T00:33:24.344Z,1011.08
2018-04-08T00:34:24.498Z,1011.05
2018-04-08T00:35:24.582Z,1011
2018-04-08T00:36:25.567Z,1011.08
2018-04-08T00:37:25.248Z,1011.02
2018-04-08T00:38:25.655Z,1010.94
2018-04-08T00:39:25.804Z,1010.92
2018-04-08T00:40:26.101Z,1010.91
2018-04-08T00:41:26.323Z,1010.87
2018-04-08T00:42:26.636Z,1010.94
2018-04-08T00:43:27.028Z,1010.88
2018-04-08T00:44:27.405Z,1010.89
2018-04-08T00:45:27.688Z,1010.86
2018-04-08T00:46:27.711Z,1010.9
2018-04-08T00:47:28.177Z,1010.85
2018-04-08T00:48:28.330Z,1010.93
2018-04-08T00:49:28.374Z,1010.92
2018-04-08T00:50:28.393Z,1010.79
2018-04-08T00:51:28.461Z,1010.81
2018-04-08T00:52:28.637Z,1010.78
2018-04-08T00:53:28.633Z,1010.79
2018-04-08T00:54:29.004Z,1010.75
2018-04-08T00:55:29.425Z,1010.72
2018-04-08T00:56:29.449Z,1010.75
2018-04-08T00:57:29.619Z,1010.72
2018-04-08T00:58:29.777Z,1010.71
2018-04-08T00:59:29.826Z,1010.7
2018-04-08T01:00:30.284Z,1010.7
2018-04-08T01:01:30.366Z,1010.65
2018-04-08T01:02:30.523Z,1010.72
2018-04-08T01:03:30.922Z,1010.69
2018-04-08T01:04:30.923Z,1010.68
2018-04-08T01:05:30.958Z,1010.71
2018-04-08T01:06:31.018Z,1010.72
2018-04-08T01:07:31.357Z,1010.72
2018-04-08T01:08:31.388Z,1010.74
2018-04-08T01:09:31.768Z,1010.73
2018-04-08T01:10:32.126Z,1010.79
2018-04-08T01:11:32.179Z,1010.74
2018-04-08T01:12:32.219Z,1010.75
2018-04-08T01:13:32.219Z,1010.72
2018-04-08T01:14:32.552Z,1010.69
2018-04-08T01:15:32.615Z,1010.74
2018-04-08T01:16:32.632Z,1010.74
2018-04-08T01:17:32.695Z,1010.72
2018-04-08T01:18:32.705Z,1010.71
2018-04-08T01:19:32.755Z,1010.68
2018-04-08T01:20:33.051Z,1010.7
2018-04-08T01:21:33.128Z,1010.74
2018-04-08T01:22:33.146Z,1010.71
2018-04-08T01:23:33.135Z,1010.74
2018-04-08T01:24:33.166Z,1010.76
2018-04-08T01:25:33.254Z,1010.79
2018-04-08T01:26:33.771Z,1010.76
2018-04-08T01:27:33.919Z,1010.74
2018-04-08T01:28:33.801Z,1010.73
2018-04-08T01:29:33.832Z,1010.78
2018-04-08T01:30:34.152Z,1010.76
2018-04-08T01:31:34.196Z,1010.82
2018-04-08T01:32:34.222Z,1010.74
2018-04-08T01:33:34.261Z,1010.77
2018-04-08T01:34:34.330Z,1010.77
2018-04-08T01:35:34.721Z,1010.81
2018-04-08T01:36:34.749Z,1010.79
2018-04-08T01:37:34.775Z,1010.85
2018-04-08T01:38:34.808Z,1010.84
2018-04-08T01:39:34.838Z,1010.81
2018-04-08T01:40:34.860Z,1010.83
2018-04-08T01:41:34.894Z,1010.83
2018-04-08T01:42:35.092Z,1010.78
2018-04-08T01:43:35.032Z,1010.79
2018-04-08T01:44:34.983Z,1010.74
2018-04-08T01:45:35.016Z,1010.74
2018-04-08T01:46:35.078Z,1010.7
2018-04-08T01:47:35.078Z,1010.71
2018-04-08T01:48:35.116Z,1010.69
2018-04-08T01:49:35.139Z,1010.7
2018-04-08T01:50:35.203Z,1010.69
2018-04-08T01:51:35.501Z,1010.7
2018-04-08T01:52:35.791Z,1010.65
2018-04-08T01:53:35.835Z,1010.76
2018-04-08T01:54:35.869Z,1010.68
2018-04-08T01:55:35.947Z,1010.67
2018-04-08T01:56:35.929Z,1010.67
2018-04-08T01:57:35.946Z,1010.66
2018-04-08T01:58:35.982Z,1010.58
2018-04-08T01:59:36.022Z,1010.6
2018-04-08T02:00:36.029Z,1010.62
2018-04-08T02:01:36.068Z,1010.6
2018-04-08T02:02:36.092Z,1010.58
2018-04-08T02:03:36.127Z,1010.57
2018-04-08T02:04:36.176Z,1010.59
2018-04-08T02:05:36.183Z,1010.6
2018-04-08T02:06:36.245Z,1010.59
2018-04-08T02:07:36.229Z,1010.53
2018-04-08T02:08:36.273Z,1010.56
2018-04-08T02:09:36.307Z,1010.54
2018-04-08T02:10:36.328Z,1010.55
2018-04-08T02:11:36.359Z,1010.52
2018-04-08T02:12:36.414Z,1010.57
2018-04-08T02:13:36.831Z,1010.52
2018-04-08T02:14:36.858Z,1010.57
2018-04-08T02:15:36.889Z,1010.56
2018-04-08T02:16:36.922Z,1010.58
2018-04-08T02:17:36.954Z,1010.56
2018-04-08T02:18:36.985Z,1010.59
2018-04-08T02:19:37.009Z,1010.54
2018-04-08T02:20:37.040Z,1010.63
2018-04-08T02:21:37.070Z,1010.56
2018-04-08T02:22:37.097Z,1010.56
2018-04-08T02:23:37.126Z,1010.57
2018-04-08T02:24:37.158Z,1010.54
2018-04-08T02:25:37.190Z,1010.57
2018-04-08T02:26:37.230Z,1010.56
2018-04-08T02:27:37.294Z,1010.52
2018-04-08T02:28:37.326Z,1010.56
2018-04-08T02:29:37.357Z,1010.53
2018-04-08T02:30:37.385Z,1010.58
2018-04-08T02:31:37.414Z,1010.54
2018-04-08T02:32:40.724Z,1010.57
2018-04-08T02:33:40.752Z,1010.54
2018-04-08T02:34:40.781Z,1010.57
2018-04-08T02:35:40.812Z,1010.52
2018-04-08T02:36:40.839Z,1010.54
2018-04-08T02:37:41.227Z,1010.54
2018-04-08T02:38:41.245Z,1010.56
2018-04-08T02:39:41.265Z,1010.5
2018-04-08T02:40:41.301Z,1010.52
2018-04-08T02:41:41.319Z,1010.48
2018-04-08T02:42:41.348Z,1010.44
2018-04-08T02:43:41.371Z,1010.46
2018-04-08T02:44:41.408Z,1010.44
2018-04-08T02:45:41.440Z,1010.44
2018-04-08T02:46:41.473Z,1010.43
2018-04-08T02:47:41.495Z,1010.39
2018-04-08T02:48:41.524Z,1010.46
2018-04-08T02:49:41.565Z,1010.4
2018-04-08T02:50:41.588Z,1010.4
2018-04-08T02:51:41.619Z,1010.4
2018-04-08T02:52:41.840Z,1010.34
2018-04-08T02:53:41.887Z,1010.41
2018-04-08T02:54:41.912Z,1010.38
2018-04-08T02:55:41.928Z,1010.41
2018-04-08T02:56:42.189Z,1010.39
2018-04-08T02:57:42.230Z,1010.38
2018-04-08T02:58:42.447Z,1010.35
2018-04-08T02:59:42.481Z,1010.38
2018-04-08T03:00:42.695Z,1010.39
2018-04-08T03:01:43.121Z,1010.36
2018-04-08T03:02:43.159Z,1010.32
2018-04-08T03:03:43.698Z,1010.34
2018-04-08T03:04:43.836Z,1010.35
2018-04-08T03:05:44.131Z,1010.34
2018-04-08T03:06:44.129Z,1010.29
2018-04-08T03:07:44.523Z,1010.31
2018-04-08T03:08:44.540Z,1010.34
2018-04-08T03:09:44.576Z,1010.3
2018-04-08T03:10:45.002Z,1010.33
2018-04-08T03:11:45.482Z,1010.3
2018-04-08T03:12:45.832Z,1010.28
2018-04-08T03:13:46.067Z,1010.23
2018-04-08T03:14:46.236Z,1010.25
2018-04-08T03:15:46.264Z,1010.25
2018-04-08T03:16:46.278Z,1010.25
2018-04-08T03:17:46.319Z,1010.24
2018-04-08T03:18:46.344Z,1010.23
2018-04-08T03:19:46.376Z,1010.25
2018-04-08T03:20:46.427Z,1010.26
2018-04-08T03:21:46.857Z,1010.24
2018-04-08T03:22:46.869Z,1010.26
2018-04-08T03:23:46.906Z,1010.3
2018-04-08T03:24:46.919Z,1010.32
2018-04-08T03:25:46.951Z,1010.26
2018-04-08T03:26:46.972Z,1010.27
2018-04-08T03:27:47.461Z,1010.29
2018-04-08T03:28:47.443Z,1010.3
2018-04-08T03:29:47.872Z,1010.3
2018-04-08T03:30:47.898Z,1010.27
2018-04-08T03:31:48.106Z,1010.25
2018-04-08T03:32:48.167Z,1010.25
2018-04-08T03:33:48.203Z,1010.25
2018-04-08T03:34:48.201Z,1010.22
2018-04-08T03:35:48.405Z,1010.25
2018-04-08T03:36:48.861Z,1010.25
2018-04-08T03:37:49.073Z,1010.2
2018-04-08T03:38:49.033Z,1010.26
2018-04-08T03:39:49.096Z,1010.24
2018-04-08T03:40:49.146Z,1010.2
2018-04-08T03:41:49.174Z,1010.22
2018-04-08T03:42:49.520Z,1010.21
2018-04-08T03:43:49.564Z,1010.26
2018-04-08T03:44:49.927Z,1010.19
2018-04-08T03:45:49.969Z,1010.19
2018-04-08T03:46:50.006Z,1010.14
2018-04-08T03:47:50.040Z,1010.17
2018-04-08T03:48:50.071Z,1010.12
2018-04-08T03:49:50.210Z,1010.11
2018-04-08T03:50:50.271Z,1010.13
2018-04-08T03:51:50.148Z,1010.15
2018-04-08T03:52:50.193Z,1010.11
2018-04-08T03:53:50.504Z,1010.13
2018-04-08T03:54:50.257Z,1010.1
2018-04-08T03:55:50.403Z,1010.14
2018-04-08T03:56:50.520Z,1010.15
2018-04-08T03:57:50.560Z,1010.14
2018-04-08T03:58:50.641Z,1010.15
2018-04-08T03:59:50.733Z,1010.21
2018-04-08T04:00:51.180Z,1010.12
2018-04-08T04:01:51.042Z,1010.09
2018-04-08T04:02:51.002Z,1010.14
2018-04-08T04:03:51.296Z,1010.13
2018-04-08T04:04:51.017Z,1010.14
2018-04-08T04:05:51.055Z,1010.15
2018-04-08T04:06:51.357Z,1010.15
2018-04-08T04:07:51.415Z,1010.17
2018-04-08T04:08:51.407Z,1010.14
2018-04-08T04:09:51.499Z,1010.13
2018-04-08T04:10:51.819Z,1010.16
2018-04-08T04:11:51.845Z,1010.13
2018-04-08T04:12:51.876Z,1010.13
2018-04-08T04:13:51.953Z,1010.12
2018-04-08T04:14:51.978Z,1010.12
2018-04-08T04:15:52.145Z,1010.13
2018-04-08T04:16:52.224Z,1010.13
2018-04-08T04:17:52.269Z,1010.15
2018-04-08T04:18:52.199Z,1010.14
2018-04-08T04:19:52.262Z,1010.13
2018-04-08T04:20:52.131Z,1010.14
2018-04-08T04:21:52.132Z,1010.15
2018-04-08T04:22:52.405Z,1010.2
2018-04-08T04:23:52.468Z,1010.27
2018-04-08T04:24:52.468Z,1010.19
2018-04-08T04:25:52.749Z,1010.3
2018-04-08T04:26:53.055Z,1010.25
2018-04-08T04:27:53.140Z,1010.25
2018-04-08T04:28:53.100Z,1010.29
2018-04-08T04:29:53.484Z,1010.34
2018-04-08T04:30:53.495Z,1010.28
2018-04-08T04:31:53.846Z,1010.28
2018-04-08T04:32:53.868Z,1010.3
2018-04-08T04:33:53.893Z,1010.32
2018-04-08T04:34:54.218Z,1010.3
2018-04-08T04:35:53.940Z,1010.31
2018-04-08T04:36:54.017Z,1010.33
2018-04-08T04:37:54.015Z,1010.35
2018-04-08T04:38:54.037Z,1010.3
2018-04-08T04:39:54.109Z,1010.35
2018-04-08T04:40:54.520Z,1010.36
2018-04-08T04:41:54.549Z,1010.38
2018-04-08T04:42:54.581Z,1010.41
2018-04-08T04:43:54.924Z,1010.39
2018-04-08T04:44:54.942Z,1010.35
2018-04-08T04:45:54.969Z,1010.4
2018-04-08T04:46:55.007Z,1010.39
2018-04-08T04:47:55.302Z,1010.4
2018-04-08T04:48:55.347Z,1010.37
2018-04-08T04:49:55.710Z,1010.38
2018-04-08T04:50:56.102Z,1010.39
2018-04-08T04:51:56.440Z,1010.39
2018-04-08T04:52:56.475Z,1010.38
2018-04-08T04:53:56.516Z,1010.41
2018-04-08T04:54:56.535Z,1010.4
2018-04-08T04:55:56.555Z,1010.43
2018-04-08T04:56:56.707Z,1010.4
2018-04-08T04:57:56.737Z,1010.4
2018-04-08T04:58:56.820Z,1010.37
2018-04-08T04:59:56.851Z,1010.42
2018-04-08T05:00:56.856Z,1010.46
2018-04-08T05:01:56.882Z,1010.42
2018-04-08T05:02:57.067Z,1010.46
2018-04-08T05:03:57.106Z,1010.47
2018-04-08T05:04:57.107Z,1010.5
2018-04-08T05:05:57.224Z,1010.48
2018-04-08T05:06:57.746Z,1010.52
2018-04-08T05:07:57.794Z,1010.51
2018-04-08T05:08:58.001Z,1010.58
2018-04-08T05:09:58.022Z,1010.53
2018-04-08T05:10:58.060Z,1010.55
2018-04-08T05:11:58.073Z,1010.54
2018-04-08T05:12:58.565Z,1010.55
2018-04-08T05:13:58.600Z,1010.58
2018-04-08T05:14:58.767Z,1010.58
2018-04-08T05:15:58.807Z,1010.58
2018-04-08T05:16:58.824Z,1010.56
2018-04-08T05:17:58.833Z,1010.57
2018-04-08T05:18:59.043Z,1010.59
2018-04-08T05:19:59.084Z,1010.58
2018-04-08T05:20:59.109Z,1010.54
2018-04-08T05:21:59.121Z,1010.52
2018-04-08T05:22:59.143Z,1010.5
2018-04-08T05:23:59.199Z,1010.51
2018-04-08T05:24:59.389Z,1010.47
2018-04-08T05:25:59.429Z,1010.47
2018-04-08T05:26:59.432Z,1010.5
2018-04-08T05:27:59.685Z,1010.48
2018-04-08T05:28:59.743Z,1010.49
2018-04-08T05:29:59.774Z,1010.48
2018-04-08T05:31:00.362Z,1010.51
2018-04-08T05:32:00.395Z,1010.45
2018-04-08T05:33:00.412Z,1010.46
2018-04-08T05:34:00.442Z,1010.4
2018-04-08T05:35:00.980Z,1010.43
2018-04-08T05:36:00.994Z,1010.44
2018-04-08T05:37:01.017Z,1010.45
2018-04-08T05:38:01.068Z,1010.39
2018-04-08T05:39:01.079Z,1010.39
2018-04-08T05:40:01.102Z,1010.41
2018-04-08T05:41:01.179Z,1010.35
2018-04-08T05:42:01.200Z,1010.41
2018-04-08T05:43:01.459Z,1010.38
2018-04-08T05:44:01.685Z,1010.41
2018-04-08T05:45:01.663Z,1010.48
2018-04-08T05:46:01.691Z,1010.47
2018-04-08T05:47:01.737Z,1010.47
2018-04-08T05:48:01.760Z,1010.46
2018-04-08T05:49:02.007Z,1010.44
2018-04-08T05:50:02.047Z,1010.42
2018-04-08T05:51:02.263Z,1010.39
2018-04-08T05:52:02.444Z,1010.4
2018-04-08T05:53:02.807Z,1010.44
2018-04-08T05:54:02.823Z,1010.46
2018-04-08T05:55:02.844Z,1010.44
2018-04-08T05:56:02.936Z,1010.44
2018-04-08T05:57:03.254Z,1010.48
2018-04-08T05:58:03.340Z,1010.48
2018-04-08T05:59:03.468Z,1010.47
2018-04-08T06:00:22.900Z,1010.5
2018-04-08T06:01:22.786Z,1010.49
2018-04-08T06:02:22.800Z,1010.46
2018-04-08T06:03:23.098Z,1010.43
2018-04-08T06:04:23.124Z,1010.42
2018-04-08T06:05:23.158Z,1010.43
2018-04-08T06:06:23.201Z,1010.42
2018-04-08T06:07:23.219Z,1010.38
2018-04-08T06:08:23.253Z,1010.42
2018-04-08T06:09:23.277Z,1010.43
2018-04-08T06:10:23.321Z,1010.43
2018-04-08T06:11:23.349Z,1010.42
2018-04-08T06:12:23.408Z,1010.38
2018-04-08T06:13:23.721Z,1010.45
2018-04-08T06:14:23.753Z,1010.43
2018-04-08T06:15:23.840Z,1010.43
2018-04-08T06:16:23.867Z,1010.5
2018-04-08T06:17:24.130Z,1010.54
2018-04-08T06:18:24.815Z,1010.54
2018-04-08T06:19:24.643Z,1010.71
2018-04-08T06:20:24.957Z,1010.81
2018-04-08T06:21:24.984Z,1011.05
2018-04-08T06:22:25.024Z,1011.27
2018-04-08T06:23:25.386Z,1011.28
2018-04-08T06:24:25.228Z,1011.35
2018-04-08T06:25:25.456Z,1011.33
2018-04-08T06:26:25.287Z,1011.28
2018-04-08T06:27:25.481Z,1011.35
2018-04-08T06:28:25.220Z,1011.48
2018-04-08T06:29:25.251Z,1011.35
2018-04-08T06:30:25.618Z,1011.39
2018-04-08T06:31:25.468Z,1011.46
2018-04-08T06:32:25.389Z,1011.51
2018-04-08T06:33:25.379Z,1011.45
2018-04-08T06:34:25.430Z,1011.51
2018-04-08T06:35:25.457Z,1011.55
2018-04-08T06:36:25.485Z,1011.62
2018-04-08T06:37:25.526Z,1011.54
2018-04-08T06:38:25.558Z,1011.48
2018-04-08T06:39:25.587Z,1011.55
2018-04-08T06:40:25.625Z,1011.51
2018-04-08T06:41:25.656Z,1011.51
2018-04-08T06:42:25.750Z,1011.61
2018-04-08T06:43:25.726Z,1011.6
2018-04-08T06:44:26.082Z,1011.54
2018-04-08T06:45:26.114Z,1011.41
2018-04-08T06:46:26.148Z,1011.42
2018-04-08T06:47:26.184Z,1011.46
2018-04-08T06:48:26.231Z,1011.44
2018-04-08T06:49:26.300Z,1011.41
2018-04-08T06:50:26.638Z,1011.49
2018-04-08T06:51:26.672Z,1011.56
2018-04-08T06:52:26.837Z,1011.51
2018-04-08T06:53:26.882Z,1011.47
2018-04-08T06:54:26.788Z,1011.52
2018-04-08T06:55:26.821Z,1011.51
2018-04-08T06:56:27.037Z,1011.45
2018-04-08T06:57:26.967Z,1011.49
2018-04-08T06:58:27.007Z,1011.6
2018-04-08T06:59:27.064Z,1011.44
2018-04-08T07:00:27.314Z,1011.44
2018-04-08T07:01:27.600Z,1011.29
2018-04-08T07:02:27.618Z,1011.36
2018-04-08T07:03:27.671Z,1011.43
2018-04-08T07:04:27.687Z,1011.45
2018-04-08T07:05:28.163Z,1011.45
2018-04-08T07:06:28.162Z,1011.47
2018-04-08T07:07:28.219Z,1011.44
2018-04-08T07:08:28.249Z,1011.58
2018-04-08T07:09:28.287Z,1011.37
2018-04-08T07:10:28.306Z,1011.34
2018-04-08T07:11:28.570Z,1011.53
2018-04-08T07:12:28.610Z,1011.4
2018-04-08T07:13:28.656Z,1011.43
2018-04-08T07:14:28.917Z,1011.36
2018-04-08T07:15:29.254Z,1011.36
2018-04-08T07:16:28.980Z,1011.3
2018-04-08T07:17:29.083Z,1011.26
2018-04-08T07:18:29.204Z,1011.3
2018-04-08T07:19:29.322Z,1011.3
2018-04-08T07:20:29.655Z,1011.31
2018-04-08T07:21:30.157Z,1011.23
2018-04-08T07:22:30.154Z,1011.26
2018-04-08T07:23:30.531Z,1011.21
2018-04-08T07:24:30.804Z,1011.06
2018-04-08T07:25:30.780Z,1011.07
2018-04-08T07:26:31.242Z,1010.89
2018-04-08T07:27:31.232Z,1010.85
2018-04-08T07:28:31.425Z,1010.9
2018-04-08T07:29:31.469Z,1010.8
2018-04-08T07:30:31.501Z,1010.76
2018-04-08T07:31:31.781Z,1010.73
2018-04-08T07:32:31.944Z,1010.64
2018-04-08T07:33:31.997Z,1010.61
2018-04-08T07:34:32.158Z,1010.6
2018-04-08T07:35:32.179Z,1010.56
2018-04-08T07:36:32.225Z,1010.56
2018-04-08T07:37:32.254Z,1010.51
2018-04-08T07:38:32.675Z,1010.45
2018-04-08T07:39:32.699Z,1010.41
2018-04-08T07:40:32.757Z,1010.41
2018-04-08T07:41:33.037Z,1010.36
2018-04-08T07:42:33.347Z,1010.32
2018-04-08T07:43:33.399Z,1010.33
2018-04-08T07:44:33.443Z,1010.32
2018-04-08T07:45:33.468Z,1010.22
2018-04-08T07:46:33.538Z,1010.25
2018-04-08T07:47:33.573Z,1010.22
2018-04-08T07:48:34.000Z,1010.24
2018-04-08T07:49:34.039Z,1010.12
2018-04-08T07:50:34.091Z,1010.18
2018-04-08T07:51:34.116Z,1010.2
2018-04-08T07:52:34.564Z,1010.21
2018-04-08T07:53:34.827Z,1010.23
2018-04-08T07:54:34.669Z,1010.16
2018-04-08T07:55:34.685Z,1010.2
2018-04-08T07:56:34.728Z,1010.12
2018-04-08T07:57:34.781Z,1010.12
2018-04-08T07:58:34.818Z,1010.17
2018-04-08T07:59:34.862Z,1010.08
2018-04-08T08:00:34.944Z,1010.11
2018-04-08T08:01:34.969Z,1010.13
2018-04-08T08:02:35.136Z,1010.12
2018-04-08T08:03:35.250Z,1010.13
2018-04-08T08:04:35.537Z,1010.12
2018-04-08T08:05:35.590Z,1010.11
2018-04-08T08:06:35.860Z,1010.14
2018-04-08T08:07:36.365Z,1010.08
2018-04-08T08:08:36.382Z,1010.08
2018-04-08T08:09:36.546Z,1010.03
2018-04-08T08:10:36.589Z,1010.05
2018-04-08T08:11:36.609Z,1010.02
2018-04-08T08:12:36.708Z,1009.96
2018-04-08T08:13:36.706Z,1010.01
2018-04-08T08:14:36.797Z,1010.04
2018-04-08T08:15:36.840Z,1010
2018-04-08T08:16:36.887Z,1009.96
2018-04-08T08:17:37.073Z,1009.94
2018-04-08T08:18:37.158Z,1009.98
2018-04-08T08:19:37.171Z,1009.99
2018-04-08T08:20:37.664Z,1009.91
2018-04-08T08:21:37.690Z,1009.94
2018-04-08T08:22:37.774Z,1009.95
2018-04-08T08:23:37.810Z,1009.97
2018-04-08T08:24:37.823Z,1010.07
2018-04-08T08:25:37.864Z,1009.97
2018-04-08T08:26:38.091Z,1010.05
2018-04-08T08:27:38.381Z,1009.99
2018-04-08T08:28:38.616Z,1009.99
2018-04-08T08:29:38.663Z,1009.96
2018-04-08T08:30:38.735Z,1010.03
2018-04-08T08:31:38.730Z,1010.03
2018-04-08T08:32:38.945Z,1010.04
2018-04-08T08:33:39.232Z,1010.01
2018-04-08T08:34:39.305Z,1010.07
2018-04-08T08:35:39.685Z,1010.06
2018-04-08T08:36:39.820Z,1010.08
2018-04-08T08:37:39.776Z,1010.07
2018-04-08T08:38:40.572Z,1010.01
2018-04-08T08:39:40.556Z,1010.02
2018-04-08T08:40:40.522Z,1010.01
2018-04-08T08:41:40.588Z,1009.91
2018-04-08T08:42:41.479Z,1009.9
2018-04-08T08:43:40.930Z,1009.93
2018-04-08T08:44:41.246Z,1009.89
2018-04-08T08:45:42.088Z,1009.82
2018-04-08T08:46:42.045Z,1009.83
2018-04-08T08:47:42.110Z,1009.86
2018-04-08T08:48:42.544Z,1009.89
2018-04-08T08:49:42.435Z,1009.83
2018-04-08T08:50:42.579Z,1009.87
2018-04-08T08:51:42.608Z,1009.9
2018-04-08T08:52:42.781Z,1009.93
2018-04-08T08:53:42.829Z,1009.95
2018-04-08T08:54:42.833Z,1009.98
2018-04-08T08:55:43.027Z,1009.99
2018-04-08T08:56:43.094Z,1010.01
2018-04-08T08:57:43.141Z,1010.03
2018-04-08T08:58:43.310Z,1010.07
2018-04-08T08:59:43.191Z,1010.03
2018-04-08T09:00:43.427Z,1009.98
2018-04-08T09:01:43.468Z,1010.08
2018-04-08T09:02:43.593Z,1010.04
2018-04-08T09:03:43.750Z,1010.04
2018-04-08T09:04:44.171Z,1010
2018-04-08T09:05:44.251Z,1010.03
2018-04-08T09:06:44.789Z,1009.93
2018-04-08T09:07:44.771Z,1010
2018-04-08T09:08:44.815Z,1009.94
2018-04-08T09:09:45.234Z,1009.96
2018-04-08T09:10:45.636Z,1010.02
2018-04-08T09:11:45.886Z,1009.94
2018-04-08T09:12:46.160Z,1010
2018-04-08T09:13:46.353Z,1009.95
2018-04-08T09:14:46.510Z,1009.93
2018-04-08T09:15:46.643Z,1010
2018-04-08T09:16:47.059Z,1009.93
2018-04-08T09:17:47.503Z,1009.92
2018-04-08T09:18:47.672Z,1009.96
2018-04-08T09:19:47.980Z,1009.96
2018-04-08T09:20:48.117Z,1010.05
2018-04-08T09:21:48.279Z,1010.06
2018-04-08T09:22:48.578Z,1010.04
2018-04-08T09:23:48.620Z,1010.05
2018-04-08T09:24:49.075Z,1010.08
2018-04-08T09:25:49.119Z,1010.09
2018-04-08T09:26:49.154Z,1010.1
2018-04-08T09:27:49.194Z,1010.1
2018-04-08T09:28:49.229Z,1010.16
2018-04-08T09:29:49.270Z,1010.1
2018-04-08T09:30:49.314Z,1010.14
2018-04-08T09:31:49.742Z,1010.17
2018-04-08T09:32:49.798Z,1010.09
2018-04-08T09:33:49.815Z,1009.96
2018-04-08T09:34:50.050Z,1009.69
2018-04-08T09:35:50.081Z,1009.6
2018-04-08T09:36:50.485Z,1009.68
2018-04-08T09:37:50.892Z,1009.61
2018-04-08T09:38:50.835Z,1009.63
2018-04-08T09:39:50.880Z,1009.62
2018-04-08T09:40:51.112Z,1009.55
2018-04-08T09:41:51.553Z,1009.62
2018-04-08T09:42:51.983Z,1009.6
2018-04-08T09:43:52.440Z,1009.63
2018-04-08T09:44:52.596Z,1009.56
2018-04-08T09:45:52.650Z,1009.46
2018-04-08T09:46:52.947Z,1009.53
2018-04-08T09:47:53.111Z,1009.52
2018-04-08T09:48:53.404Z,1009.41
2018-04-08T09:49:53.444Z,1009.48
2018-04-08T09:50:53.580Z,1009.41
2018-04-08T09:51:53.616Z,1009.45
2018-04-08T09:52:53.665Z,1009.46
2018-04-08T09:53:53.694Z,1009.39
2018-04-08T09:54:53.731Z,1009.37
2018-04-08T09:55:53.773Z,1009.36
2018-04-08T09:56:53.804Z,1009.43
2018-04-08T09:57:54.066Z,1009.41
2018-04-08T09:58:54.502Z,1009.43
2018-04-08T09:59:54.580Z,1009.49
2018-04-08T10:00:54.798Z,1009.41
2018-04-08T10:01:54.978Z,1009.39
2018-04-08T10:02:55.018Z,1009.4
2018-04-08T10:03:55.222Z,1009.42
2018-04-08T10:04:55.091Z,1009.31
2018-04-08T10:05:55.040Z,1009.29
2018-04-08T10:06:55.057Z,1009.27
2018-04-08T10:07:55.124Z,1009.19
2018-04-08T10:08:55.184Z,1009.24
2018-04-08T10:09:55.251Z,1009.29
2018-04-08T10:10:55.265Z,1009.2
2018-04-08T10:11:55.328Z,1009.18
2018-04-08T10:12:55.493Z,1009.21
2018-04-08T10:13:55.396Z,1009.39
2018-04-08T10:14:55.371Z,1009.15
2018-04-08T10:15:55.331Z,1009.19
2018-04-08T10:16:55.914Z,1009.19
2018-04-08T10:17:55.387Z,1009.2
2018-04-08T10:18:55.665Z,1009.18
2018-04-08T10:19:55.561Z,1009.09
2018-04-08T10:20:55.583Z,1009.14
2018-04-08T10:21:55.829Z,1009.21
2018-04-08T10:22:55.826Z,1009.18
2018-04-08T10:23:55.708Z,1009.18
2018-04-08T10:24:55.710Z,1009.15
2018-04-08T10:25:55.666Z,1009.1
2018-04-08T10:26:55.917Z,1009.14
2018-04-08T10:27:55.888Z,1009.11
2018-04-08T10:28:55.821Z,1009.06
2018-04-08T10:29:56.130Z,1009.02
2018-04-08T10:30:55.993Z,1009.03
2018-04-08T10:31:56.171Z,1009.03
2018-04-08T10:32:56.318Z,1009.1
2018-04-08T10:33:56.298Z,1009.04
2018-04-08T10:34:56.138Z,1009.02
2018-04-08T10:35:56.260Z,1009.13
2018-04-08T10:36:56.293Z,1009.05
2018-04-08T10:37:56.296Z,1008.96
2018-04-08T10:38:56.456Z,1008.99
2018-04-08T10:39:56.342Z,1009.05
2018-04-08T10:40:56.473Z,1009.08
2018-04-08T10:41:56.420Z,1009.03
2018-04-08T10:42:56.459Z,1008.97
2018-04-08T10:43:56.313Z,1008.98
2018-04-08T10:44:56.446Z,1008.9
2018-04-08T10:45:56.486Z,1008.95
2018-04-08T10:46:56.390Z,1008.84
2018-04-08T10:47:56.462Z,1008.91
2018-04-08T10:48:56.668Z,1008.87
2018-04-08T10:49:56.750Z,1008.91
2018-04-08T10:50:56.741Z,1008.89
2018-04-08T10:51:56.779Z,1008.9
2018-04-08T10:52:56.852Z,1008.89
2018-04-08T10:53:57.051Z,1008.82
2018-04-08T10:54:56.952Z,1008.81
2018-04-08T10:55:57.132Z,1008.78
2018-04-08T10:56:56.967Z,1008.76
2018-04-08T10:57:56.868Z,1008.74
2018-04-08T10:58:56.924Z,1008.81
2018-04-08T10:59:57.286Z,1008.78
2018-04-08T11:00:56.740Z,1008.74
2018-04-08T11:01:56.766Z,1008.69
2018-04-08T11:02:57.119Z,1008.73
2018-04-08T11:03:57.101Z,1008.72
2018-04-08T11:04:57.263Z,1008.77
2018-04-08T11:05:57.555Z,1008.71
2018-04-08T11:06:57.602Z,1008.74
2018-04-08T11:07:57.627Z,1008.73
2018-04-08T11:08:57.748Z,1008.69
2018-04-08T11:09:57.812Z,1008.66
2018-04-08T11:10:58.108Z,1008.62
2018-04-08T11:11:58.606Z,1008.68
2018-04-08T11:12:58.727Z,1008.67
2018-04-08T11:13:58.643Z,1008.66
2018-04-08T11:14:58.708Z,1008.64
2018-04-08T11:15:58.757Z,1008.64
2018-04-08T11:16:58.776Z,1008.66
2018-04-08T11:17:58.929Z,1008.68
2018-04-08T11:18:59.416Z,1008.6
2018-04-08T11:19:59.434Z,1008.59
2018-04-08T11:20:59.570Z,1008.63
2018-04-08T11:21:59.720Z,1008.67
2018-04-08T11:22:59.756Z,1008.52
2018-04-08T11:23:59.794Z,1008.58
2018-04-08T11:24:59.826Z,1008.54
2018-04-08T11:26:00.051Z,1008.66
2018-04-08T11:27:00.194Z,1008.59
2018-04-08T11:28:00.119Z,1008.5
2018-04-08T11:29:00.583Z,1008.51
2018-04-08T11:30:00.732Z,1008.54
2018-04-08T11:31:00.630Z,1008.45
2018-04-08T11:32:00.824Z,1008.52
2018-04-08T11:33:01.273Z,1008.51
2018-04-08T11:34:01.448Z,1008.48
2018-04-08T11:35:01.734Z,1008.51
2018-04-08T11:36:01.776Z,1008.42
2018-04-08T11:37:01.825Z,1008.41
2018-04-08T11:38:01.865Z,1008.35
2018-04-08T11:39:01.896Z,1008.36
2018-04-08T11:40:02.030Z,1008.42
2018-04-08T11:41:02.052Z,1008.56
2018-04-08T11:42:02.326Z,1008.4
2018-04-08T11:43:02.375Z,1008.46
2018-04-08T11:44:03.034Z,1008.4
2018-04-08T11:45:02.852Z,1008.3
2018-04-08T11:46:02.870Z,1008.36
2018-04-08T11:47:02.902Z,1008.25
2018-04-08T11:48:03.165Z,1008.45
2018-04-08T11:49:03.036Z,1008.29
2018-04-08T11:50:03.008Z,1008.34
2018-04-08T11:51:03.201Z,1008.35
2018-04-08T11:52:03.234Z,1008.33
2018-04-08T11:53:03.269Z,1008.37
2018-04-08T11:54:03.462Z,1008.37
2018-04-08T11:55:03.642Z,1008.44
2018-04-08T11:56:03.612Z,1008.34
2018-04-08T11:57:03.636Z,1008.31
2018-04-08T11:58:03.825Z,1008.3
2018-04-08T11:59:03.854Z,1008.21
2018-04-08T12:00:16.678Z,1008.22
2018-04-08T12:01:16.732Z,1008.22
2018-04-08T12:02:16.738Z,1008.27
2018-04-08T12:03:16.873Z,1008.3
2018-04-08T12:04:17.016Z,1008.32
2018-04-08T12:05:17.439Z,1008.29
2018-04-08T12:06:17.499Z,1008.23
2018-04-08T12:07:17.566Z,1008.26
2018-04-08T12:08:17.607Z,1008.18
2018-04-08T12:09:17.570Z,1008.23
2018-04-08T12:10:17.617Z,1008.25